createdAt,value
2023-05-06T00:01:48.001Z,34.17
2023-05-06T00:04:22.461Z,34.73
2023-05-06T00:06:56.974Z,38.00
2023-05-06T00:09:35.124Z,34.47
2023-05-06T00:12:13.913Z,35.27
2023-05-06T00:14:54.347Z,37.80
2023-05-06T00:17:33.943Z,32.87
2023-05-06T00:20:10.057Z,43.93
2023-05-06T00:22:43.558Z,32.70
2023-05-06T00:25:27.022Z,45.43
2023-05-06T00:28:08.237Z,36.33
2023-05-06T00:30:51.625Z,34.57
2023-05-06T00:33:29.815Z,43.50
2023-05-06T00:36:04.340Z,45.07
2023-05-06T00:38:39.362Z,32.27
2023-05-06T00:41:19.157Z,40.67
2023-05-06T00:43:59.550Z,35.27
2023-05-06T00:46:41.311Z,34.00
2023-05-06T00:49:20.374Z,37.53
2023-05-06T00:51:54.428Z,34.47
2023-05-06T00:54:28.836Z,25.13
2023-05-06T00:57:03.739Z,24.57
2023-05-06T00:59:47.198Z,22.10
2023-05-06T01:02:39.649Z,31.60
2023-05-06T01:05:22.581Z,22.93
2023-05-06T01:08:04.708Z,32.57
2023-05-06T01:10:48.983Z,28.80
2023-05-06T01:13:32.152Z,32.07
2023-05-06T01:16:14.610Z,42.07
2023-05-06T01:18:52.223Z,35.67
2023-05-06T01:21:35.718Z,35.27
2023-05-06T01:24:14.399Z,40.43
2023-05-06T01:26:50.886Z,34.27
2023-05-06T01:29:27.057Z,36.63
2023-05-06T01:32:06.999Z,40.97
2023-05-06T01:34:50.172Z,39.13
2023-05-06T01:37:32.360Z,38.37
2023-05-06T01:40:13.239Z,28.83
2023-05-06T01:42:49.224Z,31.57
2023-05-06T01:45:25.744Z,36.87
2023-05-06T01:48:02.940Z,28.43
2023-05-06T01:50:37.774Z,32.97
2023-05-06T01:53:11.667Z,31.27
2023-05-06T01:55:52.866Z,28.03
2023-05-06T01:58:27.348Z,34.93
2023-05-06T02:01:03.438Z,31.50
2023-05-06T02:03:41.727Z,29.67
2023-05-06T02:06:20.632Z,29.10
2023-05-06T02:08:56.855Z,34.00
2023-05-06T02:11:33.206Z,38.63
2023-05-06T02:14:10.535Z,33.57
2023-05-06T02:16:44.510Z,33.93
2023-05-06T02:19:20.022Z,36.10
2023-05-06T02:21:53.953Z,30.83
2023-05-06T02:24:28.406Z,37.37
2023-05-06T02:27:08.407Z,34.93
2023-05-06T02:29:43.371Z,38.17
2023-05-06T02:32:20.095Z,37.47
2023-05-06T02:34:54.761Z,30.87
2023-05-06T02:37:32.632Z,36.13
2023-05-06T02:40:09.365Z,34.57
2023-05-06T02:42:52.445Z,39.00
2023-05-06T02:45:32.528Z,30.23
2023-05-06T02:48:07.754Z,32.83
2023-05-06T02:51:00.125Z,37.17
2023-05-06T02:53:34.607Z,35.93
2023-05-06T02:56:09.246Z,36.63
2023-05-06T02:58:48.118Z,38.17
2023-05-06T03:01:22.544Z,33.93
2023-05-06T03:04:01.167Z,42.50
2023-05-06T03:06:36.938Z,38.07
2023-05-06T03:09:13.658Z,41.73
2023-05-06T03:11:47.386Z,39.40
2023-05-06T03:14:24.601Z,38.80
2023-05-06T03:17:01.294Z,39.80
2023-05-06T03:19:36.262Z,41.37
2023-05-06T03:22:12.571Z,41.87
2023-05-06T03:24:50.027Z,42.77
2023-05-06T03:27:25.057Z,47.07
2023-05-06T03:30:04.608Z,40.70
2023-05-06T03:32:39.065Z,42.37
2023-05-06T03:35:17.463Z,39.73
2023-05-06T03:37:56.755Z,43.13
2023-05-06T03:40:34.657Z,36.77
2023-05-06T03:46:19.682Z,37.53
2023-05-06T03:48:55.583Z,39.27
2023-05-06T03:51:34.562Z,30.50
2023-05-06T03:54:13.972Z,34.80
2023-05-06T03:56:50.244Z,37.67
2023-05-06T03:59:29.419Z,43.93
2023-05-06T04:02:08.483Z,35.53
2023-05-06T04:04:46.454Z,37.27
2023-05-06T04:07:25.561Z,44.73
2023-05-06T04:10:03.107Z,40.23
2023-05-06T04:12:45.194Z,48.60
2023-05-06T04:15:26.169Z,50.30
2023-05-06T04:18:10.476Z,41.63
2023-05-06T04:21:20.815Z,40.70
2023-05-06T04:24:02.923Z,44.17
2023-05-06T04:26:47.286Z,50.00
2023-05-06T04:29:24.893Z,46.70
2023-05-06T04:32:15.049Z,51.07
2023-05-06T04:34:59.441Z,46.17
2023-05-06T04:37:49.777Z,39.23
2023-05-06T04:40:36.933Z,38.07
2023-05-06T04:43:20.753Z,42.37
2023-05-06T04:45:58.982Z,43.23
2023-05-06T04:48:43.655Z,43.07
2023-05-06T04:51:25.697Z,33.90
2023-05-06T04:54:00.594Z,39.50
2023-05-06T04:56:36.280Z,43.30
2023-05-06T04:59:15.884Z,48.90
2023-05-06T05:01:51.474Z,48.20
2023-05-06T05:04:27.503Z,43.60
2023-05-06T05:07:11.273Z,47.53
2023-05-06T05:09:53.529Z,60.63
2023-05-06T05:12:30.126Z,43.60
2023-05-06T05:15:07.345Z,45.90
2023-05-06T05:17:45.597Z,46.87
2023-05-06T05:20:30.735Z,49.23
2023-05-06T05:23:21.154Z,52.87
2023-05-06T05:25:55.491Z,53.87
2023-05-06T05:28:32.070Z,56.93
2023-05-06T05:31:12.632Z,59.87
2023-05-06T05:33:48.544Z,55.53
2023-05-06T05:36:40.030Z,55.40
2023-05-06T05:39:20.152Z,51.03
2023-05-06T05:42:00.986Z,50.93
2023-05-06T05:44:35.301Z,49.00
2023-05-06T05:47:18.824Z,50.20
2023-05-06T05:49:56.456Z,50.50
2023-05-06T05:52:38.490Z,49.57
2023-05-06T05:55:22.046Z,49.37
2023-05-06T05:58:03.411Z,48.20
2023-05-06T06:00:42.690Z,44.77
2023-05-06T06:06:14.196Z,38.03
2023-05-06T06:08:57.133Z,45.63
2023-05-06T06:11:48.201Z,40.37
2023-05-06T06:14:25.918Z,61.20
2023-05-06T06:17:02.022Z,38.53
2023-05-06T06:22:23.191Z,49.90
2023-05-06T06:24:59.769Z,45.33
2023-05-06T06:27:40.595Z,37.50
2023-05-06T06:30:18.208Z,43.43
2023-05-06T06:32:55.414Z,42.20
2023-05-06T06:35:32.413Z,43.73
2023-05-06T06:38:09.364Z,44.00
2023-05-06T06:40:44.918Z,46.57
2023-05-06T06:43:23.135Z,48.30
2023-05-06T06:46:12.733Z,39.93
2023-05-06T06:48:48.311Z,58.30
2023-05-06T06:51:21.805Z,41.33
2023-05-06T06:54:03.908Z,46.57
2023-05-06T06:56:41.963Z,37.27
2023-05-06T06:59:17.029Z,34.73
2023-05-06T07:01:56.557Z,46.70
2023-05-06T07:04:32.592Z,49.00
2023-05-06T07:07:08.476Z,41.93
2023-05-06T07:09:42.847Z,39.67
2023-05-06T07:12:21.165Z,46.17
2023-05-06T07:14:57.721Z,44.77
2023-05-06T07:17:34.779Z,41.20
2023-05-06T07:20:11.942Z,32.00
2023-05-06T07:22:47.513Z,38.83
2023-05-06T07:25:22.795Z,41.43
2023-05-06T07:27:58.254Z,47.40
2023-05-06T07:30:38.570Z,40.77
2023-05-06T07:33:14.625Z,33.50
2023-05-06T07:35:51.617Z,37.60
2023-05-06T07:38:29.423Z,37.33
2023-05-06T07:41:07.066Z,42.87
2023-05-06T07:43:42.659Z,38.07
2023-05-06T07:46:24.679Z,41.93
2023-05-06T07:49:02.742Z,41.93
2023-05-06T07:51:40.319Z,38.17
2023-05-06T07:54:16.281Z,47.60
2023-05-06T07:56:50.369Z,47.87
2023-05-06T07:59:31.771Z,36.10
2023-05-06T08:02:10.076Z,40.67
2023-05-06T08:04:45.395Z,41.60
2023-05-06T08:07:22.499Z,37.93
2023-05-06T08:09:56.066Z,39.10
2023-05-06T08:12:30.152Z,35.50
2023-05-06T08:15:03.149Z,49.20
2023-05-06T08:17:40.045Z,46.33
2023-05-06T08:20:15.824Z,41.90
2023-05-06T08:23:08.103Z,45.30
2023-05-06T08:25:42.280Z,42.83
2023-05-06T08:28:19.374Z,41.07
2023-05-06T08:30:53.511Z,35.57
2023-05-06T08:33:30.956Z,37.50
2023-05-06T08:36:08.741Z,37.10
2023-05-06T08:38:43.161Z,37.90
2023-05-06T08:41:22.243Z,43.53
2023-05-06T08:43:59.576Z,44.13
2023-05-06T08:46:35.537Z,43.43
2023-05-06T08:49:14.880Z,44.25
2023-05-06T08:51:54.294Z,50.70
2023-05-06T08:54:32.820Z,44.40
2023-05-06T08:57:12.461Z,50.90
2023-05-06T08:59:48.410Z,46.20
2023-05-06T09:02:25.938Z,50.93
2023-05-06T09:05:03.665Z,52.85
2023-05-06T09:07:40.290Z,39.20
2023-05-06T09:10:20.305Z,51.77
2023-05-06T09:12:59.192Z,42.27
2023-05-06T09:15:46.141Z,44.40
2023-05-06T09:18:24.105Z,39.27
2023-05-06T09:21:00.968Z,37.33
2023-05-06T09:23:55.823Z,40.40
2023-05-06T09:26:35.093Z,45.50
2023-05-06T09:29:10.018Z,49.70
2023-05-06T09:31:46.466Z,35.90
2023-05-06T09:34:23.390Z,36.90
2023-05-06T09:37:01.555Z,47.23
2023-05-06T09:39:35.523Z,35.70
2023-05-06T09:42:11.738Z,33.27
2023-05-06T09:44:48.861Z,38.20
2023-05-06T09:47:28.745Z,39.40
2023-05-06T09:50:03.853Z,41.27
2023-05-06T09:52:41.749Z,41.00
2023-05-06T09:55:16.288Z,40.30
2023-05-06T09:57:53.874Z,32.37
2023-05-06T10:00:31.980Z,41.13
2023-05-06T10:03:07.344Z,42.33
2023-05-06T10:06:01.953Z,37.57
2023-05-06T10:08:41.070Z,36.60
2023-05-06T10:11:18.589Z,33.17
2023-05-06T10:14:00.001Z,42.77
2023-05-06T10:16:35.934Z,35.80
2023-05-06T10:19:14.789Z,39.50
2023-05-06T10:21:55.173Z,34.43
2023-05-06T10:24:36.758Z,43.20
2023-05-06T10:27:11.217Z,49.70
2023-05-06T10:29:47.922Z,35.73
2023-05-06T10:32:24.975Z,35.93
2023-05-06T10:35:02.108Z,35.10
2023-05-06T10:37:35.614Z,36.57
2023-05-06T10:40:15.347Z,28.37
2023-05-06T10:42:50.445Z,37.60
2023-05-06T10:45:24.275Z,34.87
2023-05-06T10:48:15.228Z,39.27
2023-05-06T10:50:52.109Z,32.23
2023-05-06T10:54:08.434Z,38.83
2023-05-06T10:57:06.923Z,40.23
2023-05-06T10:59:51.171Z,41.17
2023-05-06T11:02:26.601Z,34.87
2023-05-06T11:05:08.955Z,38.53
2023-05-06T11:07:53.380Z,40.63
2023-05-06T11:10:38.131Z,42.03
2023-05-06T11:13:31.062Z,39.87
2023-05-06T11:16:10.070Z,42.03
2023-05-06T11:18:50.628Z,41.43
2023-05-06T11:21:43.397Z,39.60
2023-05-06T11:24:24.000Z,37.77
2023-05-06T11:27:00.627Z,33.13
2023-05-06T11:29:41.099Z,31.97
2023-05-06T11:32:27.936Z,42.43
2023-05-06T11:35:02.552Z,41.03
2023-05-06T11:37:37.308Z,38.70
2023-05-06T11:40:23.306Z,32.10
2023-05-06T11:43:04.086Z,34.83
2023-05-06T11:45:51.659Z,31.03
2023-05-06T11:48:59.444Z,40.23
2023-05-06T11:51:37.209Z,37.67
2023-05-06T11:54:16.846Z,35.23
2023-05-06T11:56:54.700Z,43.20
2023-05-06T11:59:46.550Z,33.97
2023-05-06T12:02:29.090Z,33.97
2023-05-06T12:05:09.532Z,38.50
2023-05-06T12:07:48.503Z,36.20
2023-05-06T12:10:27.781Z,34.33
2023-05-06T12:13:05.123Z,44.57
2023-05-06T12:15:41.044Z,40.87
2023-05-06T12:18:20.231Z,36.03
2023-05-06T12:20:57.764Z,38.83
2023-05-06T12:23:35.875Z,40.83
2023-05-06T12:26:15.149Z,36.20
2023-05-06T12:28:48.933Z,38.30
2023-05-06T12:31:29.050Z,37.63
2023-05-06T12:34:04.961Z,40.70
2023-05-06T12:36:45.793Z,36.27
2023-05-06T12:39:26.916Z,40.00
2023-05-06T12:42:03.904Z,30.30
2023-05-06T12:44:43.314Z,36.43
2023-05-06T12:47:27.843Z,39.13
2023-05-06T12:50:05.531Z,40.23
2023-05-06T12:52:49.458Z,41.27
2023-05-06T12:55:27.025Z,41.63
2023-05-06T12:58:00.873Z,35.80
2023-05-06T13:00:36.450Z,43.07
2023-05-06T13:03:12.992Z,37.43
2023-05-06T13:05:53.344Z,41.77
2023-05-06T13:08:31.943Z,45.23
2023-05-06T13:11:07.624Z,39.93
2023-05-06T13:13:44.875Z,42.63
2023-05-06T13:16:21.530Z,46.37
2023-05-06T13:18:55.884Z,46.80
2023-05-06T13:21:35.294Z,37.40
2023-05-06T13:24:11.900Z,38.87
2023-05-06T13:26:51.495Z,39.80
2023-05-06T13:29:30.151Z,37.57
2023-05-06T13:32:08.531Z,35.67
2023-05-06T13:34:43.645Z,39.30
2023-05-06T13:37:19.895Z,33.53
2023-05-06T13:39:58.477Z,29.70
2023-05-06T13:42:35.296Z,37.77
2023-05-06T13:45:10.119Z,40.80
2023-05-06T13:47:51.176Z,40.77
2023-05-06T13:50:27.160Z,35.30
2023-05-06T13:53:03.869Z,30.37
2023-05-06T13:55:37.627Z,38.80
2023-05-06T13:58:13.382Z,37.10
2023-05-06T14:00:48.454Z,36.87
2023-05-06T14:03:38.889Z,36.07
2023-05-06T14:06:17.978Z,34.83
2023-05-06T14:08:57.095Z,35.57
2023-05-06T14:11:35.070Z,40.47
2023-05-06T14:14:11.856Z,32.40
2023-05-06T14:16:47.671Z,44.87
2023-05-06T14:19:27.028Z,47.00
2023-05-06T14:22:01.614Z,37.37
2023-05-06T14:24:40.730Z,32.10
2023-05-06T14:27:18.163Z,40.93
2023-05-06T14:29:54.075Z,44.80
2023-05-06T14:32:33.305Z,42.57
2023-05-06T14:35:06.775Z,47.27
2023-05-06T14:37:45.060Z,36.60
2023-05-06T14:40:22.399Z,36.30
2023-05-06T14:43:01.257Z,42.23
2023-05-06T14:45:36.428Z,47.17
2023-05-06T14:48:12.147Z,46.47
2023-05-06T14:50:48.249Z,46.80
2023-05-06T14:53:43.849Z,42.90
2023-05-06T14:56:21.306Z,51.93
2023-05-06T14:59:03.677Z,52.40
2023-05-06T15:01:42.712Z,50.13
2023-05-06T15:04:17.518Z,52.07
2023-05-06T15:07:02.775Z,54.33
2023-05-06T15:09:37.883Z,53.57
2023-05-06T15:12:18.965Z,47.23
2023-05-06T15:14:57.186Z,48.10
2023-05-06T15:17:36.140Z,46.57
2023-05-06T15:20:20.541Z,51.37
2023-05-06T15:22:58.503Z,53.70
2023-05-06T15:28:25.882Z,52.00
2023-05-06T15:31:03.214Z,51.50
2023-05-06T15:33:42.921Z,54.90
2023-05-06T15:36:21.871Z,48.77
2023-05-06T15:39:08.150Z,53.37
2023-05-06T15:41:49.341Z,52.30
2023-05-06T15:44:28.376Z,57.93
2023-05-06T15:47:01.813Z,56.00
2023-05-06T15:49:59.655Z,55.47
2023-05-06T15:52:33.335Z,55.77
2023-05-06T15:55:08.187Z,55.53
2023-05-06T15:57:49.737Z,57.63
2023-05-06T16:00:29.155Z,54.90
2023-05-06T16:05:59.084Z,59.23
2023-05-06T16:08:36.808Z,58.10
2023-05-06T16:11:11.831Z,49.40
2023-05-06T16:13:48.112Z,61.50
2023-05-06T16:16:27.658Z,57.33
2023-05-06T16:19:10.140Z,49.87
2023-05-06T16:21:44.816Z,57.47
2023-05-06T16:24:18.358Z,57.57
2023-05-06T16:26:56.590Z,55.33
2023-05-06T16:29:33.716Z,50.47
2023-05-06T16:32:14.452Z,56.27
2023-05-06T16:34:53.199Z,58.43
2023-05-06T16:37:30.578Z,52.10
2023-05-06T16:40:03.988Z,52.77
2023-05-06T16:42:39.681Z,43.60
2023-05-06T16:45:17.428Z,49.03
2023-05-06T16:47:57.429Z,46.17
2023-05-06T16:50:35.594Z,43.40
2023-05-06T16:53:11.846Z,46.17
2023-05-06T16:55:51.299Z,47.00
2023-05-06T16:58:34.487Z,54.30
2023-05-06T17:01:13.715Z,42.40
2023-05-06T17:03:53.585Z,42.73
2023-05-06T17:06:33.480Z,39.87
2023-05-06T17:09:09.653Z,41.27
2023-05-06T17:11:45.193Z,45.07
2023-05-06T17:14:22.619Z,39.23
2023-05-06T17:16:59.585Z,35.53
2023-05-06T17:19:38.122Z,40.17
2023-05-06T17:22:14.966Z,45.37
2023-05-06T17:24:50.524Z,42.87
2023-05-06T17:27:29.438Z,35.83
2023-05-06T17:30:07.846Z,33.40
2023-05-06T17:32:42.524Z,35.10
2023-05-06T17:35:20.151Z,34.20
2023-05-06T17:37:58.372Z,28.13
2023-05-06T17:40:32.292Z,35.23
2023-05-06T17:43:07.219Z,32.27
2023-05-06T17:45:41.381Z,28.63
2023-05-06T17:48:14.292Z,30.63
2023-05-06T17:50:53.621Z,25.47
2023-05-06T17:53:30.746Z,25.63
2023-05-06T17:56:07.518Z,31.37
2023-05-06T17:58:44.833Z,27.73
2023-05-06T18:01:21.783Z,31.00
2023-05-06T18:03:57.999Z,31.13
2023-05-06T18:06:39.019Z,34.50
2023-05-06T18:09:31.129Z,31.63
2023-05-06T18:12:06.509Z,29.60
2023-05-06T18:14:42.123Z,37.50
2023-05-06T18:17:16.047Z,32.43
2023-05-06T18:19:53.387Z,30.27
2023-05-06T18:22:34.086Z,31.07
2023-05-06T18:25:10.082Z,30.63
2023-05-06T18:27:44.958Z,28.33
2023-05-06T18:30:22.388Z,33.30
2023-05-06T18:32:58.201Z,32.53
2023-05-06T18:35:31.117Z,28.80
2023-05-06T18:38:05.839Z,27.83
2023-05-06T18:40:40.744Z,28.33
2023-05-06T18:43:22.297Z,29.03
2023-05-06T18:46:09.996Z,27.93
2023-05-06T18:48:46.265Z,32.47
2023-05-06T18:51:21.135Z,33.27
2023-05-06T18:53:59.190Z,25.97
2023-05-06T18:56:52.803Z,24.80
2023-05-06T18:59:32.892Z,32.53
2023-05-06T19:02:06.387Z,33.07
2023-05-06T19:04:42.757Z,27.77
2023-05-06T19:07:18.336Z,31.80
2023-05-06T19:09:57.985Z,31.47
2023-05-06T19:12:37.693Z,34.30
2023-05-06T19:15:15.184Z,31.20
2023-05-06T19:17:50.612Z,33.33
2023-05-06T19:20:26.179Z,30.60
2023-05-06T19:23:06.370Z,27.53
2023-05-06T19:25:46.516Z,28.63
2023-05-06T19:28:21.167Z,31.33
2023-05-06T19:30:54.516Z,25.87
2023-05-06T19:33:31.587Z,28.93
2023-05-06T19:36:06.378Z,27.30
2023-05-06T19:38:44.688Z,31.03
2023-05-06T19:41:22.542Z,26.90
2023-05-06T19:44:01.594Z,28.07
2023-05-06T19:46:35.360Z,25.90
2023-05-06T19:49:13.386Z,24.63
2023-05-06T19:51:50.883Z,26.00
2023-05-06T19:54:29.134Z,26.37
2023-05-06T19:57:22.862Z,26.67
2023-05-06T19:59:56.708Z,24.13
2023-05-06T20:02:31.878Z,21.63
2023-05-06T20:05:07.670Z,22.10
2023-05-06T20:07:47.492Z,28.13
2023-05-06T20:10:23.524Z,27.00
2023-05-06T20:13:07.208Z,21.30
2023-05-06T20:15:45.230Z,18.27
2023-05-06T20:18:22.744Z,19.03
2023-05-06T20:21:02.770Z,17.30
2023-05-06T20:23:40.764Z,15.63
2023-05-06T20:26:17.098Z,21.47
2023-05-06T20:28:56.203Z,13.97
2023-05-06T20:31:34.359Z,18.40
2023-05-06T20:34:08.964Z,14.17
2023-05-06T20:36:44.479Z,13.47
2023-05-06T20:39:20.567Z,14.47
2023-05-06T20:41:56.568Z,17.60
2023-05-06T20:44:41.650Z,12.77
2023-05-06T20:47:22.023Z,14.67
2023-05-06T20:49:56.985Z,12.33
2023-05-06T20:52:32.028Z,15.63
2023-05-06T20:55:10.072Z,13.40
2023-05-06T20:57:52.823Z,19.00
2023-05-06T21:00:30.707Z,13.17
2023-05-06T21:03:06.204Z,9.47
2023-05-06T21:05:41.688Z,10.10
2023-05-06T21:08:20.501Z,11.00
2023-05-06T21:11:03.128Z,13.23
2023-05-06T21:13:42.407Z,9.47
2023-05-06T21:16:20.316Z,11.60
2023-05-06T21:18:54.230Z,9.47
2023-05-06T21:21:28.222Z,14.53
2023-05-06T21:24:05.415Z,13.60
2023-05-06T21:26:39.859Z,12.27
2023-05-06T21:29:13.805Z,12.33
2023-05-06T21:31:51.112Z,8.27
2023-05-06T21:34:25.735Z,13.73
2023-05-06T21:36:59.090Z,10.47
2023-05-06T21:39:33.179Z,11.83
2023-05-06T21:42:09.743Z,17.23
2023-05-06T21:44:44.200Z,14.07
2023-05-06T21:47:21.711Z,15.93
2023-05-06T21:49:57.758Z,14.53
2023-05-06T21:52:41.394Z,18.30
2023-05-06T21:55:17.398Z,17.63
2023-05-06T21:57:51.953Z,22.30
2023-05-06T22:00:28.829Z,18.63
2023-05-06T22:03:08.190Z,18.77
2023-05-06T22:05:43.760Z,17.60
2023-05-06T22:08:18.941Z,19.50
2023-05-06T22:10:57.460Z,22.60
2023-05-06T22:13:32.356Z,14.83
2023-05-06T22:16:13.172Z,16.93
2023-05-06T22:18:50.031Z,18.20
2023-05-06T22:21:24.743Z,14.77
2023-05-06T22:23:58.189Z,16.73
2023-05-06T22:26:35.045Z,15.03
2023-05-06T22:29:08.313Z,20.50
2023-05-06T22:31:44.532Z,19.03
2023-05-06T22:34:20.187Z,13.93
2023-05-06T22:36:54.119Z,14.90
2023-05-06T22:39:32.847Z,19.33
2023-05-06T22:42:08.740Z,13.33
2023-05-06T22:44:44.261Z,16.57
2023-05-06T22:47:23.652Z,13.33
2023-05-06T22:50:01.486Z,11.50
2023-05-06T22:52:35.025Z,12.60
2023-05-06T22:55:11.221Z,15.40
2023-05-06T22:57:47.797Z,18.37
2023-05-06T23:00:22.809Z,14.33
2023-05-06T23:02:58.676Z,14.27
2023-05-06T23:05:34.345Z,19.33
2023-05-06T23:08:10.368Z,19.50
2023-05-06T23:11:04.063Z,13.90
2023-05-06T23:13:38.502Z,19.90
2023-05-06T23:16:13.601Z,14.73
2023-05-06T23:18:48.554Z,15.60
2023-05-06T23:21:28.447Z,17.07
2023-05-06T23:24:02.804Z,14.73
2023-05-06T23:26:38.138Z,14.37
2023-05-06T23:29:14.890Z,15.23
2023-05-06T23:31:48.220Z,15.53
2023-05-06T23:34:25.930Z,15.67
2023-05-06T23:37:05.148Z,17.77
2023-05-06T23:39:43.655Z,17.87
2023-05-06T23:42:18.568Z,19.07
2023-05-06T23:44:53.512Z,14.47
2023-05-06T23:47:28.601Z,17.10
2023-05-06T23:50:23.259Z,19.87
2023-05-06T23:53:04.029Z,19.97
2023-05-06T23:55:43.311Z,21.70
2023-05-06T23:58:20.609Z,21.77
